createdAt,value
2023-03-06T00:00:16.514Z,0.00
2023-03-06T00:00:46.272Z,0.00
2023-03-06T00:01:17.311Z,0.00
2023-03-06T00:01:48.208Z,0.00
2023-03-06T00:02:19.230Z,0.00
2023-03-06T00:02:51.743Z,0.00
2023-03-06T00:03:21.365Z,0.00
2023-03-06T00:03:52.547Z,0.00
2023-03-06T00:04:23.824Z,0.00
2023-03-06T00:04:54.368Z,0.00
2023-03-06T00:05:26.094Z,0.00
2023-03-06T00:05:56.492Z,0.00
2023-03-06T00:06:27.437Z,0.00
2023-03-06T00:06:58.579Z,0.00
2023-03-06T00:07:29.422Z,0.00
2023-03-06T00:08:00.204Z,0.00
2023-03-06T00:08:31.247Z,0.00
2023-03-06T00:09:02.246Z,0.00
2023-03-06T00:09:33.419Z,0.00
2023-03-06T00:10:04.826Z,0.00
2023-03-06T00:10:35.610Z,0.00
2023-03-06T00:11:06.522Z,0.00
2023-03-06T00:11:38.922Z,0.00
2023-03-06T00:12:08.449Z,0.00
2023-03-06T00:12:40.597Z,0.00
2023-03-06T00:13:10.516Z,0.00
2023-03-06T00:13:41.750Z,0.00
2023-03-06T00:14:12.307Z,0.00
2023-03-06T00:14:43.293Z,0.00
2023-03-06T00:15:15.255Z,0.00
2023-03-06T00:15:45.358Z,0.00
2023-03-06T00:16:16.561Z,0.00
2023-03-06T00:16:47.472Z,0.00
2023-03-06T00:17:18.288Z,0.00
2023-03-06T00:17:49.478Z,0.00
2023-03-06T00:18:20.618Z,0.00
2023-03-06T00:18:51.292Z,0.00
2023-03-06T00:19:22.296Z,0.00
2023-03-06T00:19:53.599Z,0.00
2023-03-06T00:20:25.533Z,0.00
2023-03-06T00:20:55.455Z,0.00
2023-03-06T00:21:26.413Z,0.00
2023-03-06T00:21:57.326Z,0.00
2023-03-06T00:22:28.855Z,0.00
2023-03-06T00:22:59.756Z,0.00
2023-03-06T00:23:30.281Z,0.00
2023-03-06T00:24:01.592Z,0.00
2023-03-06T00:24:32.624Z,0.00
2023-03-06T00:25:03.748Z,0.00
2023-03-06T00:25:34.279Z,0.00
2023-03-06T00:26:05.613Z,0.00
2023-03-06T00:26:36.721Z,0.00
2023-03-06T00:27:07.504Z,0.00
2023-03-06T00:27:38.853Z,0.00
2023-03-06T00:28:09.320Z,0.00
2023-03-06T00:28:40.319Z,0.00
2023-03-06T00:29:11.438Z,0.00
2023-03-06T00:29:42.443Z,0.00
2023-03-06T00:30:14.594Z,0.00
2023-03-06T00:30:44.720Z,0.00
2023-03-06T00:31:15.444Z,0.00
2023-03-06T00:31:46.629Z,0.00
2023-03-06T00:32:17.640Z,0.00
2023-03-06T00:32:48.590Z,0.00
2023-03-06T00:33:19.634Z,0.00
2023-03-06T00:33:50.664Z,0.00
2023-03-06T00:34:21.677Z,0.00
2023-03-06T00:34:52.364Z,0.00
2023-03-06T00:35:24.030Z,0.00
2023-03-06T00:35:54.372Z,0.00
2023-03-06T00:36:25.453Z,0.00
2023-03-06T00:36:56.419Z,0.00
2023-03-06T00:37:27.442Z,0.00
2023-03-06T00:37:58.707Z,0.00
2023-03-06T00:38:29.984Z,0.00
2023-03-06T00:39:00.545Z,0.00
2023-03-06T00:39:31.613Z,0.00
2023-03-06T00:40:02.939Z,0.00
2023-03-06T00:40:33.509Z,0.00
2023-03-06T00:41:04.411Z,0.00
2023-03-06T00:41:35.771Z,0.00
2023-03-06T00:42:06.361Z,0.00
2023-03-06T00:42:37.366Z,0.00
2023-03-06T00:43:09.521Z,0.00
2023-03-06T00:43:39.515Z,0.00
2023-03-06T00:44:11.196Z,0.00
2023-03-06T00:44:41.571Z,0.00
2023-03-06T00:45:13.638Z,0.00
2023-03-06T00:45:43.872Z,0.00
2023-03-06T00:46:14.694Z,0.00
2023-03-06T00:46:45.643Z,0.00
2023-03-06T00:47:16.375Z,0.00
2023-03-06T00:47:47.582Z,0.00
2023-03-06T00:48:18.380Z,0.00
2023-03-06T00:48:49.841Z,0.00
2023-03-06T00:49:20.784Z,0.00
2023-03-06T00:49:51.853Z,0.00
2023-03-06T00:50:23.194Z,0.00
2023-03-06T00:50:53.851Z,0.00
2023-03-06T00:51:24.390Z,0.00
2023-03-06T00:51:55.380Z,0.00
2023-03-06T00:52:26.421Z,0.00
2023-03-06T00:52:57.408Z,0.00
2023-03-06T00:53:28.415Z,0.00
2023-03-06T00:53:59.570Z,0.00
2023-03-06T00:54:30.932Z,0.00
2023-03-06T00:55:02.135Z,0.00
2023-03-06T00:55:32.824Z,0.00
2023-03-06T00:56:03.777Z,0.00
2023-03-06T00:56:34.369Z,0.00
2023-03-06T00:57:05.732Z,0.00
2023-03-06T00:57:37.017Z,0.00
2023-03-06T00:58:07.557Z,0.00
2023-03-06T00:58:38.418Z,0.00
2023-03-06T00:59:09.381Z,0.00
2023-03-06T00:59:40.677Z,0.00
2023-03-06T01:00:12.422Z,0.00
2023-03-06T01:00:42.660Z,0.00
2023-03-06T01:01:13.479Z,0.00
2023-03-06T01:01:44.414Z,0.00
2023-03-06T01:02:15.378Z,0.00
2023-03-06T01:02:46.463Z,0.00
2023-03-06T01:03:17.584Z,0.00
2023-03-06T01:03:48.598Z,0.00
2023-03-06T01:04:19.675Z,0.00
2023-03-06T01:04:50.637Z,0.00
2023-03-06T01:05:22.558Z,0.00
2023-03-06T01:05:52.468Z,0.00
2023-03-06T01:06:23.334Z,0.00
2023-03-06T01:06:54.390Z,0.00
2023-03-06T01:07:25.620Z,0.00
2023-03-06T01:07:56.558Z,0.00
2023-03-06T01:08:27.608Z,0.00
2023-03-06T01:08:59.003Z,0.00
2023-03-06T01:09:29.448Z,0.00
2023-03-06T01:10:00.937Z,0.00
2023-03-06T01:10:31.790Z,0.00
2023-03-06T01:11:02.462Z,0.00
2023-03-06T01:11:33.393Z,0.00
2023-03-06T01:12:04.760Z,0.00
2023-03-06T01:12:35.601Z,0.00
2023-03-06T01:13:06.660Z,0.00
2023-03-06T01:13:37.432Z,0.00
2023-03-06T01:14:08.472Z,0.00
2023-03-06T01:14:40.900Z,0.00
2023-03-06T01:15:11.501Z,0.00
2023-03-06T01:15:41.938Z,0.00
2023-03-06T01:16:12.650Z,0.00
2023-03-06T01:16:43.685Z,0.00
2023-03-06T01:17:14.446Z,0.00
2023-03-06T01:17:46.348Z,0.00
2023-03-06T01:18:16.846Z,0.00
2023-03-06T01:18:47.386Z,0.00
2023-03-06T01:19:18.795Z,0.00
2023-03-06T01:19:49.442Z,0.00
2023-03-06T01:20:20.940Z,0.00
2023-03-06T01:20:51.736Z,0.00
2023-03-06T01:21:22.479Z,0.00
2023-03-06T01:21:53.404Z,0.00
2023-03-06T01:22:24.464Z,0.00
2023-03-06T01:22:55.416Z,0.00
2023-03-06T01:23:26.717Z,0.00
2023-03-06T01:23:57.604Z,0.00
2023-03-06T01:24:28.479Z,0.00
2023-03-06T01:24:59.449Z,0.00
2023-03-06T01:25:31.114Z,0.00
2023-03-06T01:26:01.619Z,0.00
2023-03-06T01:26:32.633Z,0.00
2023-03-06T01:27:03.575Z,0.00
2023-03-06T01:27:34.625Z,0.00
2023-03-06T01:28:05.507Z,0.00
2023-03-06T01:28:36.644Z,0.00
2023-03-06T01:29:07.555Z,0.00
2023-03-06T01:29:38.682Z,0.00
2023-03-06T01:30:10.478Z,0.00
2023-03-06T01:30:41.044Z,0.00
2023-03-06T01:31:11.634Z,0.00
2023-03-06T01:31:42.951Z,0.00
2023-03-06T01:32:13.568Z,0.00
2023-03-06T01:32:44.470Z,0.00
2023-03-06T01:33:15.442Z,0.00
2023-03-06T01:33:46.716Z,0.00
2023-03-06T01:34:17.623Z,0.00
2023-03-06T01:34:48.451Z,0.00
2023-03-06T01:35:20.209Z,0.00
2023-03-06T01:35:50.501Z,0.00
2023-03-06T01:36:21.424Z,0.00
2023-03-06T01:36:52.660Z,0.00
2023-03-06T01:37:23.810Z,0.00
2023-03-06T01:37:54.452Z,0.00
2023-03-06T01:38:25.483Z,0.00
2023-03-06T01:38:56.556Z,0.00
2023-03-06T01:39:27.462Z,0.00
2023-03-06T01:39:58.532Z,0.00
2023-03-06T01:40:30.211Z,0.00
2023-03-06T01:41:00.496Z,0.00
2023-03-06T01:41:31.512Z,0.00
2023-03-06T01:42:02.503Z,0.00
2023-03-06T01:42:33.467Z,0.00
2023-03-06T01:43:04.534Z,0.00
2023-03-06T01:43:35.457Z,0.00
2023-03-06T01:44:06.843Z,0.00
2023-03-06T01:44:37.533Z,0.00
2023-03-06T01:45:09.730Z,0.00
2023-03-06T01:45:39.956Z,0.00
2023-03-06T01:46:11.629Z,0.00
2023-03-06T01:46:41.549Z,0.00
2023-03-06T01:47:12.715Z,0.00
2023-03-06T01:47:43.638Z,0.00
2023-03-06T01:48:14.635Z,0.00
2023-03-06T01:48:45.578Z,0.00
2023-03-06T01:49:16.806Z,0.00
2023-03-06T01:49:47.688Z,0.00
2023-03-06T01:50:18.923Z,0.00
2023-03-06T01:50:49.729Z,0.00
2023-03-06T01:51:20.920Z,0.00
2023-03-06T01:51:51.941Z,0.00
2023-03-06T01:52:22.915Z,0.00
2023-03-06T01:52:53.836Z,0.00
2023-03-06T01:53:24.553Z,0.00
2023-03-06T01:53:55.549Z,0.00
2023-03-06T01:54:26.831Z,0.00
2023-03-06T01:54:57.529Z,0.00
2023-03-06T01:55:29.603Z,0.00
2023-03-06T01:55:59.540Z,0.00
2023-03-06T01:56:30.537Z,0.00
2023-03-06T01:57:01.920Z,0.00
2023-03-06T01:57:32.581Z,0.00
2023-03-06T01:58:03.576Z,0.00
2023-03-06T01:58:34.807Z,0.00
2023-03-06T01:59:05.941Z,0.00
2023-03-06T01:59:36.832Z,0.00
2023-03-06T02:00:08.550Z,0.00
2023-03-06T02:00:38.787Z,0.00
2023-03-06T02:01:10.278Z,0.00
2023-03-06T02:01:40.864Z,0.00
2023-03-06T02:02:11.679Z,0.00
2023-03-06T02:02:42.656Z,0.00
2023-03-06T02:03:14.031Z,0.00
2023-03-06T02:03:44.618Z,0.00
2023-03-06T02:04:15.996Z,0.00
2023-03-06T02:04:46.961Z,0.00
2023-03-06T02:05:18.248Z,0.00
2023-03-06T02:05:48.769Z,0.00
2023-03-06T02:06:20.189Z,0.00
2023-03-06T02:06:50.655Z,0.00
2023-03-06T02:07:21.639Z,0.00
2023-03-06T02:07:52.711Z,0.00
2023-03-06T02:08:23.819Z,0.00
2023-03-06T02:08:54.751Z,0.00
2023-03-06T02:09:26.001Z,0.00
2023-03-06T02:09:56.970Z,0.00
2023-03-06T02:10:28.311Z,0.00
2023-03-06T02:10:59.086Z,0.00
2023-03-06T02:11:29.742Z,0.00
2023-03-06T02:12:00.900Z,0.00
2023-03-06T02:12:31.997Z,0.00
2023-03-06T02:13:03.002Z,0.00
2023-03-06T02:13:33.628Z,0.00
2023-03-06T02:14:04.782Z,0.00
2023-03-06T02:14:36.579Z,0.00
2023-03-06T02:15:08.212Z,0.00
2023-03-06T02:15:37.938Z,0.00
2023-03-06T02:16:09.314Z,0.00
2023-03-06T02:16:39.705Z,0.00
2023-03-06T02:17:10.677Z,0.00
2023-03-06T02:17:42.766Z,0.00
2023-03-06T02:18:12.830Z,0.00
2023-03-06T02:18:43.934Z,0.00
2023-03-06T02:19:15.018Z,0.00
2023-03-06T02:19:46.675Z,0.00
2023-03-06T02:20:17.268Z,0.00
2023-03-06T02:20:47.669Z,0.00
2023-03-06T02:21:19.273Z,0.00
2023-03-06T02:21:49.718Z,0.00
2023-03-06T02:22:20.898Z,0.00
2023-03-06T02:22:51.866Z,0.00
2023-03-06T02:23:22.793Z,0.00
2023-03-06T02:23:53.658Z,0.00
2023-03-06T02:24:24.810Z,0.00
2023-03-06T02:24:55.959Z,0.00
2023-03-06T02:25:27.074Z,0.00
2023-03-06T02:25:58.051Z,0.00
2023-03-06T02:26:29.059Z,0.00
2023-03-06T02:26:59.729Z,0.00
2023-03-06T02:27:30.632Z,0.00
2023-03-06T02:28:01.901Z,0.00
2023-03-06T02:28:32.661Z,0.00
2023-03-06T02:29:03.725Z,0.00
2023-03-06T02:29:34.683Z,0.00
2023-03-06T02:30:06.797Z,0.00
2023-03-06T02:30:36.970Z,0.00
2023-03-06T02:31:07.804Z,0.00
2023-03-06T02:31:38.873Z,0.00
2023-03-06T02:32:09.750Z,0.00
2023-03-06T02:32:40.824Z,0.00
2023-03-06T02:33:11.766Z,0.00
2023-03-06T02:33:42.870Z,0.00
2023-03-06T02:34:14.097Z,0.00
2023-03-06T02:34:44.964Z,0.00
2023-03-06T02:35:16.499Z,0.00
2023-03-06T02:35:46.787Z,0.00
2023-03-06T02:36:18.077Z,0.00
2023-03-06T02:36:49.054Z,0.00
2023-03-06T02:37:19.774Z,0.00
2023-03-06T02:37:51.135Z,0.00
2023-03-06T02:38:22.068Z,0.00
2023-03-06T02:38:52.962Z,0.00
2023-03-06T02:39:24.098Z,0.00
2023-03-06T02:39:54.982Z,0.00
2023-03-06T02:40:26.516Z,0.00
2023-03-06T02:40:56.785Z,0.00
2023-03-06T02:41:27.979Z,0.00
2023-03-06T02:41:59.118Z,0.00
2023-03-06T02:42:29.796Z,0.00
2023-03-06T02:43:01.375Z,0.00
2023-03-06T02:43:31.789Z,0.00
2023-03-06T02:44:02.913Z,0.00
2023-03-06T02:44:33.749Z,0.00
2023-03-06T02:45:05.659Z,0.00
2023-03-06T02:45:35.900Z,0.00
2023-03-06T02:46:06.901Z,0.00
2023-03-06T02:46:37.735Z,0.00
2023-03-06T02:47:08.766Z,0.00
2023-03-06T02:47:39.879Z,0.00
2023-03-06T02:48:10.877Z,0.00
2023-03-06T02:48:41.786Z,0.00
2023-03-06T02:49:13.675Z,0.00
2023-03-06T02:49:43.785Z,0.00
2023-03-06T02:50:15.502Z,0.00
2023-03-06T02:50:45.875Z,0.00
2023-03-06T02:51:16.805Z,0.00
2023-03-06T02:51:48.086Z,0.00
2023-03-06T02:52:18.902Z,0.00
2023-03-06T02:52:50.011Z,0.00
2023-03-06T02:53:21.174Z,0.00
2023-03-06T02:53:52.060Z,0.00
2023-03-06T02:54:23.160Z,0.00
2023-03-06T02:54:53.833Z,0.00
2023-03-06T02:55:25.193Z,0.00
2023-03-06T02:55:55.737Z,0.00
2023-03-06T02:56:27.100Z,0.00
2023-03-06T02:56:57.975Z,0.00
2023-03-06T02:57:29.053Z,0.00
2023-03-06T02:57:59.995Z,0.00
2023-03-06T02:58:31.048Z,0.00
2023-03-06T02:59:01.808Z,0.00
2023-03-06T02:59:32.922Z,0.00
2023-03-06T03:00:04.750Z,0.00
2023-03-06T03:00:35.042Z,0.00
2023-03-06T03:01:06.510Z,0.00
2023-03-06T03:01:36.827Z,0.00
2023-03-06T03:02:07.794Z,0.00
2023-03-06T03:02:38.827Z,0.00
2023-03-06T03:03:10.041Z,0.00
2023-03-06T03:03:40.829Z,0.00
2023-03-06T03:04:12.124Z,0.00
2023-03-06T03:04:43.049Z,0.00
2023-03-06T03:05:14.477Z,0.00
2023-03-06T03:05:45.196Z,0.00
2023-03-06T03:06:16.438Z,0.00
2023-03-06T03:06:46.859Z,0.00
2023-03-06T03:07:17.906Z,0.00
2023-03-06T03:07:49.066Z,0.00
2023-03-06T03:08:19.907Z,0.00
2023-03-06T03:08:50.853Z,0.00
2023-03-06T03:09:21.866Z,0.00
2023-03-06T03:09:52.822Z,0.00
2023-03-06T03:10:24.482Z,0.00
2023-03-06T03:10:55.236Z,0.00
2023-03-06T03:11:25.862Z,0.00
2023-03-06T03:11:56.879Z,0.00
2023-03-06T03:12:27.807Z,0.00
2023-03-06T03:12:59.392Z,0.00
2023-03-06T03:13:29.849Z,0.00
2023-03-06T03:14:01.051Z,0.00
2023-03-06T03:14:32.218Z,0.00
2023-03-06T03:15:04.191Z,0.00
2023-03-06T03:15:34.359Z,0.00
2023-03-06T03:16:04.912Z,0.00
2023-03-06T03:16:38.143Z,0.00
2023-03-06T03:17:06.951Z,0.00
2023-03-06T03:17:38.311Z,0.00
2023-03-06T03:18:08.803Z,0.00
2023-03-06T03:18:40.134Z,0.00
2023-03-06T03:19:10.904Z,0.00
2023-03-06T03:19:41.841Z,0.00
2023-03-06T03:20:13.307Z,0.00
2023-03-06T03:20:45.192Z,0.00
2023-03-06T03:21:15.283Z,0.00
2023-03-06T03:21:47.638Z,0.00
2023-03-06T03:22:17.003Z,0.00
2023-03-06T03:22:48.397Z,0.00
2023-03-06T03:23:18.871Z,0.00
2023-03-06T03:23:50.199Z,0.00
2023-03-06T03:24:21.174Z,0.00
2023-03-06T03:24:52.459Z,0.00
2023-03-06T03:25:23.559Z,0.00
2023-03-06T03:25:54.350Z,0.00
2023-03-06T03:26:25.346Z,0.00
2023-03-06T03:26:56.404Z,0.00
2023-03-06T03:27:26.924Z,0.00
2023-03-06T03:27:58.323Z,0.00
2023-03-06T03:28:29.147Z,0.00
2023-03-06T03:29:00.271Z,0.00
2023-03-06T03:29:31.275Z,0.00
2023-03-06T03:30:03.351Z,0.00
2023-03-06T03:30:33.387Z,0.00
2023-03-06T03:31:04.285Z,0.00
2023-03-06T03:31:35.445Z,0.00
2023-03-06T03:32:06.022Z,0.00
2023-03-06T03:32:37.069Z,0.00
2023-03-06T03:33:08.506Z,0.00
2023-03-06T03:33:39.428Z,0.00
2023-03-06T03:34:10.573Z,0.00
2023-03-06T03:34:41.077Z,0.00
2023-03-06T03:35:12.657Z,0.00
2023-03-06T03:35:42.990Z,0.00
2023-03-06T03:36:13.948Z,0.00
2023-03-06T03:36:44.946Z,0.00
2023-03-06T03:37:15.992Z,0.00
2023-03-06T03:37:46.949Z,0.00
2023-03-06T03:38:18.557Z,0.00
2023-03-06T03:38:48.940Z,0.00
2023-03-06T03:39:20.621Z,0.00
2023-03-06T03:39:51.049Z,0.00
2023-03-06T03:40:22.635Z,0.00
2023-03-06T03:40:55.443Z,0.00
2023-03-06T03:41:23.929Z,0.00
2023-03-06T03:41:55.478Z,0.00
2023-03-06T03:42:26.323Z,0.00
2023-03-06T03:42:57.523Z,0.00
2023-03-06T03:43:28.349Z,0.00
2023-03-06T03:43:59.545Z,0.00
2023-03-06T03:44:30.615Z,0.00
2023-03-06T03:45:01.762Z,0.00
2023-03-06T03:45:31.989Z,0.00
2023-03-06T03:46:03.303Z,0.00
2023-03-06T03:46:34.658Z,0.00
2023-03-06T03:47:04.912Z,0.00
2023-03-06T03:47:35.966Z,0.00
2023-03-06T03:48:07.192Z,0.00
2023-03-06T03:48:38.104Z,0.00
2023-03-06T03:49:09.269Z,0.00
2023-03-06T03:49:40.465Z,0.00
2023-03-06T03:50:11.752Z,0.00
2023-03-06T03:50:42.690Z,0.00
2023-03-06T03:51:13.333Z,0.00
2023-03-06T03:51:43.986Z,0.00
2023-03-06T03:52:15.808Z,0.00
2023-03-06T03:52:46.157Z,0.00
2023-03-06T03:53:18.959Z,0.00
2023-03-06T03:53:50.313Z,0.00
2023-03-06T03:54:30.568Z,0.00
2023-03-06T03:54:50.464Z,0.00
2023-03-06T03:55:21.549Z,0.00
2023-03-06T03:55:52.001Z,0.00
2023-03-06T03:56:23.203Z,0.00
2023-03-06T03:56:54.161Z,0.00
2023-03-06T03:57:24.999Z,0.00
2023-03-06T03:57:55.986Z,0.00
2023-03-06T03:58:27.284Z,0.00
2023-03-06T03:58:58.669Z,0.00
2023-03-06T03:59:29.650Z,0.00
2023-03-06T04:00:00.157Z,0.00
2023-03-06T04:00:32.258Z,0.00
2023-03-06T04:01:02.438Z,0.00
2023-03-06T04:01:33.320Z,0.00
2023-03-06T04:02:04.610Z,0.00
2023-03-06T04:02:35.022Z,0.00
2023-03-06T04:03:06.248Z,0.00
2023-03-06T04:03:37.002Z,0.00
2023-03-06T04:04:08.005Z,0.00
2023-03-06T04:04:39.075Z,0.00
2023-03-06T04:05:10.461Z,0.00
2023-03-06T04:05:41.107Z,0.00
2023-03-06T04:06:12.281Z,0.00
2023-03-06T04:06:43.045Z,0.00
2023-03-06T04:07:14.114Z,0.00
2023-03-06T04:07:45.133Z,0.00
2023-03-06T04:08:16.315Z,0.00
2023-03-06T04:08:47.495Z,0.00
2023-03-06T04:09:18.453Z,0.00
2023-03-06T04:09:49.042Z,0.00
2023-03-06T04:10:20.520Z,0.00
2023-03-06T04:10:51.255Z,0.00
2023-03-06T04:11:22.299Z,0.00
2023-03-06T04:11:53.017Z,0.00
2023-03-06T04:12:24.053Z,0.00
2023-03-06T04:12:55.133Z,0.00
2023-03-06T04:13:26.016Z,0.00
2023-03-06T04:13:57.367Z,0.00
2023-03-06T04:14:28.193Z,0.00
2023-03-06T04:14:59.488Z,0.00
2023-03-06T04:15:31.365Z,0.00
2023-03-06T04:16:01.312Z,0.00
2023-03-06T04:16:32.421Z,0.00
2023-03-06T04:17:03.416Z,0.00
2023-03-06T04:17:34.219Z,0.00
2023-03-06T04:18:05.441Z,0.00
2023-03-06T04:18:36.055Z,0.00
2023-03-06T04:19:07.088Z,0.00
2023-03-06T04:19:38.221Z,0.00
2023-03-06T04:20:09.319Z,0.00
2023-03-06T04:20:40.040Z,0.00
2023-03-06T04:21:11.451Z,0.00
2023-03-06T04:21:42.220Z,0.00
2023-03-06T04:22:13.313Z,0.00
2023-03-06T04:22:44.356Z,0.00
2023-03-06T04:23:15.438Z,0.00
2023-03-06T04:23:47.412Z,0.00
2023-03-06T04:24:17.054Z,0.00
2023-03-06T04:24:48.722Z,0.00
2023-03-06T04:25:20.043Z,0.00
2023-03-06T04:25:50.076Z,0.00
2023-03-06T04:26:21.303Z,0.00
2023-03-06T04:26:52.532Z,0.00
2023-03-06T04:27:23.094Z,0.00
2023-03-06T04:27:54.209Z,0.00
2023-03-06T04:28:25.078Z,0.00
2023-03-06T04:28:56.215Z,0.00
2023-03-06T04:29:27.202Z,0.00
2023-03-06T04:29:58.280Z,0.00
2023-03-06T04:30:30.559Z,0.00
2023-03-06T04:31:00.464Z,0.00
2023-03-06T04:31:31.356Z,0.00
2023-03-06T04:32:02.456Z,0.00
2023-03-06T04:32:33.457Z,0.00
2023-03-06T04:33:04.540Z,0.00
2023-03-06T04:33:35.483Z,0.00
2023-03-06T04:34:06.134Z,0.00
2023-03-06T04:34:37.162Z,0.00
2023-03-06T04:35:08.349Z,0.00
2023-03-06T04:35:39.209Z,0.00
2023-03-06T04:36:10.100Z,0.00
2023-03-06T04:36:41.267Z,0.00
2023-03-06T04:37:12.217Z,0.00
2023-03-06T04:37:43.133Z,0.00
2023-03-06T04:38:14.415Z,0.00
2023-03-06T04:38:45.154Z,0.00
2023-03-06T04:39:16.382Z,0.00
2023-03-06T04:39:47.475Z,0.00
2023-03-06T04:40:18.816Z,0.00
2023-03-06T04:40:49.527Z,0.00
2023-03-06T04:41:20.375Z,0.00
2023-03-06T04:41:51.252Z,0.00
2023-03-06T04:42:22.216Z,0.00
2023-03-06T04:42:53.436Z,0.00
2023-03-06T04:43:24.145Z,0.00
2023-03-06T04:43:55.493Z,0.00
2023-03-06T04:44:26.257Z,0.00
2023-03-06T04:44:57.215Z,0.00
2023-03-06T04:45:29.487Z,0.00
2023-03-06T04:45:59.600Z,0.00
2023-03-06T04:46:30.421Z,0.00
2023-03-06T04:47:01.227Z,0.00
2023-03-06T04:47:32.386Z,0.00
2023-03-06T04:48:03.430Z,0.00
2023-03-06T04:48:34.597Z,0.00
2023-03-06T04:49:05.148Z,0.00
2023-03-06T04:49:36.232Z,0.00
2023-03-06T04:50:07.504Z,0.00
2023-03-06T04:50:38.232Z,0.00
2023-03-06T04:51:09.392Z,0.00
2023-03-06T04:51:40.182Z,0.00
2023-03-06T04:52:11.322Z,0.00
2023-03-06T04:52:42.602Z,0.00
2023-03-06T04:53:13.174Z,0.00
2023-03-06T04:53:44.179Z,0.00
2023-03-06T04:54:15.721Z,0.00
2023-03-06T04:54:46.315Z,0.00
2023-03-06T04:55:18.940Z,0.00
2023-03-06T04:55:48.555Z,0.00
2023-03-06T04:56:19.963Z,0.00
2023-03-06T04:56:50.392Z,0.00
2023-03-06T04:57:21.603Z,0.00
2023-03-06T04:57:52.241Z,0.00
2023-03-06T04:58:23.229Z,0.00
2023-03-06T04:58:54.774Z,0.00
2023-03-06T04:59:25.205Z,0.00
2023-03-06T04:59:56.235Z,0.00
2023-03-06T05:00:28.588Z,0.00
2023-03-06T05:00:58.665Z,0.00
2023-03-06T05:01:29.503Z,0.00
2023-03-06T05:02:00.556Z,0.00
2023-03-06T05:02:31.246Z,0.00
2023-03-06T05:03:02.237Z,0.00
2023-03-06T05:03:33.248Z,0.00
2023-03-06T05:04:04.421Z,0.00
2023-03-06T05:04:35.529Z,0.00
2023-03-06T05:05:07.132Z,0.00
2023-03-06T05:05:37.690Z,0.00
2023-03-06T05:06:08.565Z,0.00
2023-03-06T05:06:39.405Z,0.00
2023-03-06T05:07:10.497Z,0.00
2023-03-06T05:07:41.572Z,0.00
2023-03-06T05:08:12.496Z,0.00
2023-03-06T05:08:43.644Z,0.00
2023-03-06T05:09:14.482Z,0.00
2023-03-06T05:09:45.339Z,0.00
2023-03-06T05:10:16.619Z,0.00
2023-03-06T05:10:47.716Z,0.00
2023-03-06T05:11:18.467Z,0.00
2023-03-06T05:11:49.543Z,0.00
2023-03-06T05:12:20.345Z,0.00
2023-03-06T05:12:51.587Z,0.00
2023-03-06T05:13:22.583Z,0.00
2023-03-06T05:13:53.549Z,0.00
2023-03-06T05:14:24.726Z,0.00
2023-03-06T05:14:55.580Z,0.00
2023-03-06T05:15:27.763Z,0.00
2023-03-06T05:15:57.659Z,0.00
2023-03-06T05:16:28.295Z,0.00
2023-03-06T05:16:59.412Z,0.00
2023-03-06T05:17:30.349Z,0.00
2023-03-06T05:18:01.264Z,0.00
2023-03-06T05:18:32.318Z,0.00
2023-03-06T05:19:03.376Z,0.00
2023-03-06T05:19:34.376Z,0.00
2023-03-06T05:20:05.894Z,0.00
2023-03-06T05:20:36.254Z,0.00
2023-03-06T05:21:07.626Z,0.00
2023-03-06T05:21:38.793Z,0.00
2023-03-06T05:22:09.958Z,0.00
2023-03-06T05:22:40.442Z,0.00
2023-03-06T05:23:11.623Z,0.00
2023-03-06T05:23:42.329Z,0.00
2023-03-06T05:24:13.280Z,0.00
2023-03-06T05:24:44.319Z,0.00
2023-03-06T05:25:16.257Z,0.00
2023-03-06T05:25:46.401Z,0.00
2023-03-06T05:26:17.613Z,0.00
2023-03-06T05:26:49.498Z,0.00
2023-03-06T05:27:19.469Z,0.00
2023-03-06T05:27:51.192Z,0.00
2023-03-06T05:28:21.321Z,0.00
2023-03-06T05:28:52.300Z,0.00
2023-03-06T05:29:23.654Z,0.00
2023-03-06T05:29:54.659Z,0.00
2023-03-06T05:30:26.655Z,0.00
2023-03-06T05:30:56.667Z,0.00
2023-03-06T05:31:27.773Z,0.00
2023-03-06T05:31:58.574Z,0.00
2023-03-06T05:32:29.614Z,0.00
2023-03-06T05:33:00.725Z,0.00
2023-03-06T05:33:31.668Z,0.00
2023-03-06T05:34:02.695Z,0.00
2023-03-06T05:34:33.699Z,0.00
2023-03-06T05:35:05.064Z,0.00
2023-03-06T05:35:35.389Z,0.00
2023-03-06T05:36:06.336Z,0.00
2023-03-06T05:36:37.393Z,0.00
2023-03-06T05:37:08.933Z,0.00
2023-03-06T05:37:39.638Z,0.00
2023-03-06T05:38:10.742Z,0.00
2023-03-06T05:38:41.437Z,0.00
2023-03-06T05:39:12.342Z,0.00
2023-03-06T05:39:43.590Z,0.00
2023-03-06T05:40:14.853Z,0.00
2023-03-06T05:40:45.687Z,0.00
2023-03-06T05:41:16.325Z,0.00
2023-03-06T05:41:47.603Z,0.00
2023-03-06T05:42:18.458Z,0.00
2023-03-06T05:42:49.616Z,0.00
2023-03-06T05:43:20.585Z,0.00
2023-03-06T05:43:51.341Z,0.00
2023-03-06T05:44:22.405Z,0.00
2023-03-06T05:44:53.347Z,0.00
2023-03-06T05:45:25.901Z,0.00
2023-03-06T05:45:55.678Z,0.00
2023-03-06T05:46:26.535Z,0.00
2023-03-06T05:46:57.693Z,0.00
2023-03-06T05:47:28.864Z,0.00
2023-03-06T05:47:59.664Z,0.00
2023-03-06T05:48:31.184Z,0.00
2023-03-06T05:49:01.788Z,0.00
2023-03-06T05:49:32.425Z,0.00
2023-03-06T05:50:03.645Z,0.00
2023-03-06T05:50:34.394Z,0.00
2023-03-06T05:51:05.685Z,0.00
2023-03-06T05:51:36.587Z,0.00
2023-03-06T05:52:07.470Z,0.00
2023-03-06T05:52:38.492Z,0.00
2023-03-06T05:53:09.427Z,0.00
2023-03-06T05:53:40.804Z,0.00
2023-03-06T05:54:11.765Z,0.00
2023-03-06T05:54:42.799Z,0.00
2023-03-06T05:55:14.019Z,0.00
2023-03-06T05:55:44.608Z,0.00
2023-03-06T05:56:15.461Z,0.00
2023-03-06T05:56:46.787Z,0.00
2023-03-06T05:57:17.577Z,0.00
2023-03-06T05:57:48.416Z,0.00
2023-03-06T05:58:20.426Z,0.00
2023-03-06T05:58:50.993Z,0.00
2023-03-06T05:59:22.670Z,0.00
2023-03-06T05:59:52.749Z,0.00
2023-03-06T06:00:24.946Z,0.00
2023-03-06T06:00:54.966Z,0.00
2023-03-06T06:01:25.379Z,0.00
2023-03-06T06:01:57.170Z,0.00
2023-03-06T06:02:27.620Z,0.00
2023-03-06T06:02:58.611Z,0.00
2023-03-06T06:03:29.784Z,0.00
2023-03-06T06:04:00.796Z,0.00
2023-03-06T06:04:31.426Z,0.00
2023-03-06T06:05:03.074Z,0.00
2023-03-06T06:05:33.612Z,0.00
2023-03-06T06:06:04.562Z,0.00
2023-03-06T06:06:35.847Z,0.00
2023-03-06T06:07:06.814Z,0.00
2023-03-06T06:07:37.804Z,0.36
2023-03-06T06:08:08.819Z,0.85
2023-03-06T06:08:39.390Z,0.00
2023-03-06T06:09:12.817Z,0.36
2023-03-06T06:09:41.585Z,0.36
2023-03-06T06:10:12.973Z,0.36
2023-03-06T06:10:43.650Z,0.36
2023-03-06T06:11:14.649Z,0.36
2023-03-06T06:11:46.071Z,0.36
2023-03-06T06:12:16.892Z,1.22
2023-03-06T06:12:47.764Z,0.36
2023-03-06T06:13:18.892Z,1.22
2023-03-06T06:13:49.983Z,0.85
2023-03-06T06:14:21.030Z,0.36
2023-03-06T06:14:51.568Z,0.85
2023-03-06T06:15:23.780Z,1.22
2023-03-06T06:15:53.678Z,1.71
2023-03-06T06:16:24.467Z,1.71
2023-03-06T06:16:55.544Z,1.22
2023-03-06T06:17:26.978Z,1.22
2023-03-06T06:17:57.651Z,1.71
2023-03-06T06:18:28.764Z,1.71
2023-03-06T06:18:59.595Z,1.22
2023-03-06T06:19:30.554Z,2.57
2023-03-06T06:20:02.000Z,2.08
2023-03-06T06:20:32.751Z,2.94
2023-03-06T06:21:03.966Z,2.57
2023-03-06T06:21:34.918Z,2.57
2023-03-06T06:22:05.699Z,2.57
2023-03-06T06:22:36.634Z,2.94
2023-03-06T06:23:08.083Z,3.43
2023-03-06T06:23:38.895Z,2.57
2023-03-06T06:24:10.046Z,3.43
2023-03-06T06:24:40.749Z,4.28
2023-03-06T06:25:12.479Z,3.79
2023-03-06T06:25:42.526Z,3.79
2023-03-06T06:26:13.589Z,3.43
2023-03-06T06:26:44.918Z,3.79
2023-03-06T06:27:15.698Z,3.79
2023-03-06T06:27:46.722Z,3.79
2023-03-06T06:28:17.969Z,4.28
2023-03-06T06:28:48.892Z,4.28
2023-03-06T06:29:19.881Z,4.77
2023-03-06T06:29:52.020Z,4.28
2023-03-06T06:30:22.493Z,3.79
2023-03-06T06:30:53.638Z,3.43
2023-03-06T06:31:23.653Z,4.28
2023-03-06T06:31:54.689Z,4.77
2023-03-06T06:32:25.845Z,3.79
2023-03-06T06:32:57.096Z,4.77
2023-03-06T06:33:27.949Z,4.77
2023-03-06T06:33:58.996Z,4.77
2023-03-06T06:34:29.974Z,5.14
2023-03-06T06:35:00.876Z,5.14
2023-03-06T06:35:31.876Z,4.77
2023-03-06T06:36:02.879Z,5.14
2023-03-06T06:36:33.898Z,4.77
2023-03-06T06:37:04.783Z,4.77
2023-03-06T06:37:35.699Z,5.63
2023-03-06T06:38:06.631Z,5.14
2023-03-06T06:38:37.778Z,5.63
2023-03-06T06:39:09.039Z,5.63
2023-03-06T06:39:39.776Z,5.63
2023-03-06T06:40:11.700Z,4.77
2023-03-06T06:40:41.951Z,5.63
2023-03-06T06:41:59.086Z,5.63
2023-03-06T06:42:30.471Z,5.99
2023-03-06T06:42:45.845Z,5.63
2023-03-06T06:43:17.009Z,6.85
2023-03-06T06:43:47.640Z,7.34
2023-03-06T06:44:18.995Z,6.85
2023-03-06T06:44:50.024Z,6.85
2023-03-06T06:45:21.807Z,8.19
2023-03-06T06:45:53.117Z,7.70
2023-03-06T06:47:02.586Z,8.19
2023-03-06T06:47:25.803Z,9.05
2023-03-06T06:47:56.205Z,8.56
2023-03-06T06:48:26.611Z,8.56
2023-03-06T06:48:58.308Z,9.05
2023-03-06T06:49:28.725Z,9.54
2023-03-06T06:49:59.670Z,8.56
2023-03-06T06:50:31.173Z,9.05
2023-03-06T06:51:02.061Z,9.91
2023-03-06T06:51:33.040Z,9.54
2023-03-06T06:52:04.638Z,10.77
2023-03-06T06:52:34.981Z,10.39
2023-03-06T06:53:06.245Z,11.25
2023-03-06T06:53:37.067Z,11.25